Latest Weather Observations for Maria Island

IDT60801

Issued at 9:32 pm EDT Monday 20 February 2017 (issued every 30 minutes, with the page automatically refreshed every 10 minutes)

About weather observations | Map of weather stations | Latest weather observations for TAS | Other Formats
Station Details ID: 092124 Name: MARIA ISLAND (POINT LESUEUR) Lat: -42.66 Lon: 148.02 Height: 28.0 m
Data from the previous 72 hours. | See also: Recent months at Maria Island
Date/Time
EDT
Temp
°C
App
Temp
°C
Dew
Point
°C
Rel
Hum
%
Delta-T
°C
Wind Press
QNH
hPa
Press
MSL
hPa
Rain since
9am
mm
Dir  Spd
km/h
Gust
km/h
Spd
kts
Gust
kts
20/09:30pm 14.1 5.4 9.9 76 2.2 SSW 46 54 25 29 1010.7 1010.6 11.6
20/09:00pm 14.4 6.9 9.6 73 2.5 SW 39 48 21 26 1010.3 1010.2 11.6
20/08:30pm 14.3 5.3 10.1 76 2.2 SSW 48 54 26 29 1009.6 1009.5 11.6
20/08:00pm 14.7 5.8 10.5 76 2.2 SSW 48 61 26 33 1009.1 1009.0 11.6
20/07:30pm 14.8 6.2 10.4 75 2.3 SSW 46 54 25 29 1008.7 1008.6 11.6
20/07:00pm 15.4 6.9 10.8 74 2.4 SSW 46 56 25 30 1008.1 1008.0 11.6
20/06:30pm 15.0 7.0 10.4 74 2.4 SSW 43 52 23 28 1007.8 1007.7 11.6
20/06:00pm 15.4 8.2 10.6 73 2.5 SSW 39 48 21 26 1007.5 1007.4 11.6
20/05:30pm 14.5 8.4 11.8 84 1.5 S 35 43 19 23 1007.3 1007.2 11.6
20/05:12pm 14.7 9.2 12.4 86 1.3 SSW 33 44 18 24 1007.0 1006.9 11.6
20/05:00pm 14.6 8.8 12.8 89 1.0 SSW 35 44 19 24 1006.9 1006.8 11.6
20/04:30pm 14.7 9.7 12.2 85 1.4 SW 30 39 16 21 1006.8 1006.7 9.6
20/04:00pm 15.0 10.7 13.2 89 1.0 SW 28 35 15 19 1006.6 1006.5 9.6
20/03:30pm 13.4 5.8 11.8 90 0.9 SSW 43 48 23 26 1006.5 1006.4 8.6
20/03:00pm 13.7 8.3 12.1 90 0.9 SW 32 41 17 22 1006.4 1006.3 8.2
20/02:30pm 13.7 7.7 12.1 90 0.9 SW 35 44 19 24 1006.6 1006.5 6.6
20/02:00pm 13.5 7.8 11.9 90 0.9 SW 33 39 18 21 1006.5 1006.4 6.0
20/01:30pm 12.9 6.7 11.5 91 0.7 SSW 35 43 19 23 1006.6 1006.5 4.0
20/01:00pm 14.4 8.8 7.2 62 3.5 S 26 33 14 18 1006.6 1006.5 0.0
20/12:30pm 15.6 10.3 11.4 76 2.3 SSW 30 35 16 19 1006.6 1006.5 0.0
20/12:00pm 16.0 8.1 1.3 37 6.5 SSW 32 39 17 21 1006.7 1006.6 0.0
20/11:30am 14.8 8.6 11.4 80 1.8 SSW 35 41 19 22 1006.8 1006.7 0.0
20/11:00am 14.4 8.6 11.4 82 1.6 SSW 33 39 18 21 1006.9 1006.8 0.0
20/10:30am 14.0 7.6 10.8 81 1.7 SSW 35 39 19 21 1007.0 1006.9 0.0
20/10:00am 13.8 7.8 10.8 82 1.6 SSW 33 41 18 22 1006.9 1006.8 0.0
20/09:30am 13.2 7.1 10.4 83 1.5 SSW 33 39 18 21 1006.9 1006.8 0.0
20/09:00am 13.2 7.1 10.6 84 1.4 SSW 33 37 18 20 1006.8 1006.7 2.0
20/08:30am 12.6 6.4 10.1 85 1.3 SSW 33 39 18 21 1006.6 1006.5 2.0
20/08:00am 12.6 7.8 10.3 86 1.2 SSW 26 32 14 17 1006.5 1006.4 2.0
20/07:30am 12.1 7.2 10.0 87 1.1 SSW 26 28 14 15 1006.5 1006.4 1.4
20/07:00am 12.7 7.7 9.7 82 1.5 S 26 32 14 17 1006.4 1006.3 0.0
20/06:30am 12.9 7.5 9.5 80 1.7 SSW 28 32 15 17 1006.0 1005.9 0.0
20/06:00am 13.1 8.1 9.7 80 1.7 SSW 26 35 14 19 1005.7 1005.6 0.0
20/05:30am 13.3 8.4 10.1 81 1.7 SSW 26 32 14 17 1005.7 1005.6 0.0
20/05:00am 13.2 8.0 10.2 82 1.6 SSW 28 32 15 17 1005.7 1005.6 0.0
20/04:30am 13.3 8.1 10.3 82 1.6 SSW 28 32 15 17 1005.5 1005.4 0.0
20/04:00am 13.1 7.5 10.3 83 1.5 SSW 30 33 16 18 1005.6 1005.5 0.0
20/03:30am 13.0 7.0 10.0 82 1.5 SSW 32 37 17 20 1005.4 1005.3 0.0
20/03:00am 13.0 8.1 10.0 82 1.5 SSW 26 30 14 16 1005.8 1005.7 0.0
20/02:30am 13.2 8.3 10.0 81 1.6 SSW 26 30 14 16 1005.9 1005.8 0.0
20/02:00am 13.0 7.6 9.6 80 1.7 SSW 28 32 15 17 1005.8 1005.7 0.0
20/01:30am 13.3 8.3 9.7 79 1.8 SSW 26 28 14 15 1005.7 1005.6 0.0
20/01:00am 12.5 11.3 9.7 83 1.4 S 6 6 3 3 1005.7 1005.6 0.0
20/12:30am 12.8 11.6 9.4 80 1.7 WSW 6 7 3 4 1005.7 1005.6 0.0
20/12:00am 12.7 12.1 9.0 78 1.9 WNW 2 6 1 3 1005.5 1005.4 0.0
 
Date/Time
EDT
Temp
°C
App
Temp
°C
Dew
Point
°C
Rel
Hum
%
Delta-T
°C
Wind Press
QNH
hPa
Press
MSL
hPa
Rain since
9am
mm
Dir  Spd
km/h
Gust
km/h
Spd
kts
Gust
kts
19/11:30pm 12.7 11.6 8.4 75 2.1 SSE 4 6 2 3 1005.7 1005.6 0.0
19/11:00pm 13.4 12.1 9.1 75 2.2 W 6 7 3 4 1006.0 1005.9 0.0
19/10:30pm 12.8 11.2 7.9 72 2.4 ENE 6 7 3 4 1006.0 1005.9 0.0
19/10:00pm 13.4 12.9 7.8 69 2.8 CALM 0 0 0 0 1005.9 1005.8 0.0
19/09:30pm 14.0 13.2 8.2 68 2.9 NE 2 4 1 2 1005.8 1005.7 0.0
19/09:00pm 14.3 12.7 8.0 66 3.2 NE 6 6 3 3 1005.4 1005.3 0.0
19/08:30pm 14.3 12.7 8.0 66 3.1 NE 6 9 3 5 1005.1 1005.0 0.0
19/08:00pm 15.0 12.5 8.0 63 3.5 N 11 15 6 8 1004.4 1004.3 0.0
19/07:30pm 15.2 14.0 8.0 62 3.6 N 4 6 2 3 1004.1 1004.0 0.0
19/07:00pm 15.2 13.6 8.9 66 3.2 N 7 9 4 5 1003.8 1003.7 0.0
19/06:30pm 15.4 13.6 9.5 68 3.1 NNW 9 13 5 7 1003.7 1003.6 0.0
19/06:00pm 14.9 11.2 9.3 69 2.9 N 19 24 10 13 1003.3 1003.2 0.0
19/05:30pm 16.6 13.1 8.6 59 4.1 N 17 20 9 11 1003.2 1003.1 0.0
19/05:00pm 16.4 13.1 7.9 57 4.3 N 15 19 8 10 1003.1 1003.0 0.0
19/04:30pm 16.4 13.4 7.9 57 4.3 E 13 22 7 12 1003.1 1003.0 0.0
19/04:00pm 16.9 12.7 7.5 54 4.7 ESE 19 22 10 12 1003.1 1003.0 0.0
19/03:30pm 16.7 14.1 5.9 49 5.2 NNE 9 13 5 7 1003.2 1003.1 0.0
19/03:00pm 16.9 14.7 6.4 50 5.2 NNE 7 13 4 7 1003.3 1003.2 0.0
19/02:30pm 16.0 12.9 7.2 56 4.4 N 13 17 7 9 1003.4 1003.3 0.0
19/02:00pm 16.3 13.1 6.7 53 4.7 NNE 13 17 7 9 1003.5 1003.4 0.0
19/01:30pm 15.8 11.8 6.5 54 4.5 N 17 20 9 11 1003.6 1003.5 0.0
19/01:00pm 15.2 12.2 6.2 55 4.4 NNE 11 19 6 10 1003.9 1003.8 0.0
19/12:30pm 14.9 10.9 6.5 57 4.1 N 17 20 9 11 1004.1 1004.0 0.0
19/12:00pm 14.3 11.5 6.9 61 3.6 N 11 15 6 8 1004.4 1004.3 0.0
19/11:30am 14.3 10.8 7.4 63 3.4 N 15 17 8 9 1004.5 1004.4 0.0
19/11:00am 13.4 10.3 7.2 66 3.0 N 13 17 7 9 1004.6 1004.5 0.0
19/10:30am 13.2 9.4 7.6 69 2.7 NNW 17 22 9 12 1004.5 1004.4 0.0
19/10:00am 12.6 7.4 7.1 69 2.7 N 24 32 13 17 1004.2 1004.1 0.0
19/09:30am 12.8 8.6 7.3 69 2.7 NNW 19 24 10 13 1004.0 1003.9 0.0
19/09:00am 12.5 7.7 7.2 70 2.6 N 22 28 12 15 1003.8 1003.7 3.4
19/08:30am 12.1 7.3 7.2 72 2.4 N 22 30 12 16 1003.5 1003.4 3.4
19/08:00am 11.7 6.8 6.8 72 2.3 N 22 28 12 15 1003.3 1003.2 3.4
19/07:30am 11.8 6.5 6.7 71 2.4 NNW 24 30 13 16 1003.1 1003.0 3.4
19/07:00am 12.0 7.1 7.1 72 2.4 NNW 22 32 12 17 1003.4 1003.3 3.4
19/06:30am 11.7 4.6 6.6 71 2.4 N 33 39 18 21 1002.8 1002.7 3.4
19/06:00am 11.5 4.9 6.0 69 2.6 N 30 37 16 20 1002.7 1002.6 3.4
19/05:30am 11.4 6.2 5.7 68 2.6 N 22 28 12 15 1002.8 1002.7 3.4
19/05:00am 11.4 6.2 5.7 68 2.7 N 22 30 12 16 1002.7 1002.6 3.4
19/04:30am 11.5 5.6 5.6 67 2.7 N 26 30 14 16 1002.7 1002.6 3.4
19/04:00am 11.7 5.4 5.8 67 2.8 NNW 28 32 15 17 1002.8 1002.7 3.4
19/03:30am 11.3 8.0 6.4 72 2.3 NW 13 17 7 9 1003.2 1003.1 3.4
19/03:00am 12.1 7.6 7.0 71 2.5 N 20 26 11 14 1003.3 1003.2 3.4
19/02:30am 11.8 9.9 7.7 76 2.0 NNW 7 11 4 6 1003.6 1003.5 3.4
19/02:00am 11.9 9.8 8.4 79 1.7 NNW 9 13 5 7 1003.9 1003.8 3.4
19/01:30am 11.6 10.4 8.1 79 1.7 NNE 4 6 2 3 1004.1 1004.0 3.4
19/01:00am 11.0 9.2 7.9 81 1.5 NE 7 9 4 5 1004.4 1004.3 3.4
19/12:30am 11.2 9.6 8.6 84 1.3 ENE 7 13 4 7 1004.4 1004.3 3.4
19/12:00am 11.9 10.4 9.3 84 1.3 W 7 9 4 5 1004.5 1004.4 3.4
 
Date/Time
EDT
Temp
°C
App
Temp
°C
Dew
Point
°C
Rel
Hum
%
Delta-T
°C
Wind Press
QNH
hPa
Press
MSL
hPa
Rain since
9am
mm
Dir  Spd
km/h
Gust
km/h
Spd
kts
Gust
kts
18/11:30pm 12.4 10.9 9.1 80 1.7 WNW 7 11 4 6 1004.7 1004.6 3.4
18/11:00pm 11.7 10.1 8.0 78 1.8 ENE 6 7 3 4 1004.9 1004.8 3.4
18/10:30pm 12.7 12.0 8.6 76 2.0 NE 2 2 1 1 1005.0 1004.9 3.4
18/10:00pm 12.6 11.9 8.5 76 2.0 E 2 4 1 2 1005.3 1005.2 3.4
18/09:30pm 13.1 12.1 8.8 75 2.2 SSE 4 6 2 3 1005.5 1005.4 3.4
18/09:00pm 13.3 12.1 8.0 70 2.6 WSW 4 6 2 3 1005.2 1005.1 3.4
18/08:30pm 13.1 11.3 8.0 71 2.5 SSW 7 11 4 6 1004.8 1004.7 3.4
18/08:00pm 13.2 11.4 8.1 71 2.5 SW 7 9 4 5 1004.4 1004.3 3.4
18/07:30pm 14.2 13.2 7.5 64 3.3 SW 2 6 1 3 1004.4 1004.3 3.4
18/07:00pm 14.0 11.5 8.2 68 2.9 N 11 15 6 8 1004.6 1004.5 3.4
18/06:30pm 14.0 12.9 8.4 69 2.8 E 4 7 2 4 1004.5 1004.4 3.4
18/06:00pm 13.9 12.0 9.1 73 2.4 WSW 9 13 5 7 1005.0 1004.9 3.4
18/05:30pm 13.1 10.7 8.6 74 2.3 ESE 11 17 6 9 1004.6 1004.5 3.4
18/05:00pm 12.7 8.1 8.2 74 2.2 SW 22 43 12 23 1004.3 1004.2 1.2
18/04:30pm 13.7 11.4 7.5 66 3.0 SSE 9 11 5 6 1004.4 1004.3 0.2
18/04:00pm 14.7 9.7 8.0 64 3.4 NNE 24 30 13 16 1004.6 1004.5 0.0
18/03:30pm 16.4 12.6 6.0 50 5.0 ENE 15 28 8 15 1004.7 1004.6 0.0
18/03:00pm 16.5 12.3 7.4 55 4.6 ESE 19 24 10 13 1004.6 1004.5 0.0
18/02:30pm 17.1 12.1 6.3 49 5.3 ESE 22 28 12 15 1004.5 1004.4 0.0
18/02:00pm 16.1 10.7 6.5 53 4.7 ESE 24 30 13 16 1004.8 1004.7 0.0
18/01:30pm 18.0 14.3 4.2 40 6.5 NNE 13 17 7 9 1004.8 1004.7 0.0
18/01:00pm 18.4 13.2 2.3 34 7.4 W 19 30 10 16 1005.1 1005.0 0.0
18/12:30pm 17.7 13.5 3.6 39 6.6 NNW 15 19 8 10 1005.3 1005.2 0.0
18/12:00pm 16.6 12.4 4.0 43 5.9 WNW 15 19 8 10 1005.5 1005.4 0.0
18/11:30am 16.0 12.2 4.1 45 5.5 WNW 13 17 7 9 1005.8 1005.7 0.0
18/11:00am 15.4 10.7 5.0 50 4.9 WNW 19 26 10 14 1006.1 1006.0 0.0
18/10:30am 14.5 10.9 4.8 52 4.5 NW 13 20 7 11 1006.3 1006.2 0.0
18/10:00am 13.6 9.5 4.2 53 4.3 NW 15 24 8 13 1006.5 1006.4 0.0
18/09:30am 13.5 9.6 5.2 57 3.9 NW 15 20 8 11 1006.7 1006.6 0.0
18/09:00am 12.8 8.3 4.3 56 3.9 WNW 17 22 9 12 1006.7 1006.6 6.4
18/08:30am 12.3 9.9 4.5 59 3.6 W 6 9 3 5 1006.5 1006.4 6.4
18/08:00am 12.1 7.9 5.5 64 3.1 N 17 20 9 11 1006.3 1006.2 6.4
18/07:30am 11.5 8.7 5.2 65 2.9 NW 9 13 5 7 1006.1 1006.0 6.4
18/07:00am 11.2 8.8 5.1 66 2.8 WNW 7 15 4 8 1005.7 1005.6 6.4
18/06:30am 11.1 10.0 5.0 66 2.8 CALM 0 9 0 5 1005.4 1005.3 6.4
18/06:00am 11.1 8.9 5.4 68 2.6 WSW 6 7 3 4 1005.1 1005.0 6.4
18/05:30am 10.7 7.2 5.3 69 2.5 WNW 13 15 7 8 1004.8 1004.7 6.4
18/05:00am 10.7 8.0 5.7 71 2.3 WNW 9 20 5 11 1004.6 1004.5 6.2
18/04:30am 10.9 6.9 6.6 75 2.0 NW 17 20 9 11 1004.3 1004.2 6.2
18/04:00am 11.8 7.7 6.3 69 2.6 NW 17 20 9 11 1003.9 1003.8 6.2
18/03:30am 11.3 7.8 7.2 76 2.0 NW 15 17 8 9 1004.2 1004.1 6.2
18/03:00am 12.3 8.3 6.8 69 2.6 NW 17 20 9 11 1004.2 1004.1 6.2
18/02:30am 12.3 8.0 7.2 71 2.5 NW 19 20 10 11 1004.1 1004.0 6.2
18/02:00am 12.4 8.3 7.7 73 2.3 WNW 19 22 10 12 1004.3 1004.2 6.2
18/01:30am 12.4 9.3 8.9 79 1.8 W 15 17 8 9 1004.5 1004.4 6.2
18/01:00am 13.2 10.0 9.8 80 1.8 W 17 20 9 11 1004.4 1004.3 6.2
18/12:30am 12.9 10.4 11.1 89 0.9 W 15 19 8 10 1004.2 1004.1 6.2
18/12:00am 12.9 10.6 11.6 92 0.7 W 15 17 8 9 1004.2 1004.1 6.2
 
Date/Time
EDT
Temp
°C
App
Temp
°C
Dew
Point
°C
Rel
Hum
%
Delta-T
°C
Wind Press
QNH
hPa
Press
MSL
hPa
Rain since
9am
mm
Dir  Spd
km/h
Gust
km/h
Spd
kts
Gust
kts
17/11:30pm 13.9 13.0 12.5 91 0.8 N 9 11 5 6 1004.2 1004.1 6.2
17/11:00pm 13.3 12.8 11.9 91 0.8 N 6 7 3 4 1004.2 1004.1 6.2
17/10:30pm 13.5 13.4 12.1 91 0.8 NNE 4 6 2 3 1004.2 1004.1 6.2
17/10:00pm 13.4 14.1 12.1 92 0.7 CALM 0 2 0 1 1004.2 1004.1 6.2

Other Formats:

Comma delimited format used in spreadsheet applications
http://www.bom.gov.au/fwo/IDT60801/IDT60801.95988.axf

JavaScript Object Notation format (JSON) in row-major order
http://www.bom.gov.au/fwo/IDT60801/IDT60801.95988.json